KBOW/BOW METAR and TAF weather

Enter ICAO airport designator
Station Type Date Time Source
KBOW METAR 2018/01/17 06:35 UTC NOAA

KBOW 170635Z AUTO 00000KT 10SM CLR 08/08 A3026 RMK AO2


Station Type Date Time Source
KBOW Decoded METAR 2018/01/17 06:35 UTC NOAA

Bartow Municipal, FL, United States (KBOW) 27-57N 081-47W
Jan 17, 2018 - 01:35 AM EST / 2018.01.17 0635 UTC
Wind: Calm:0
Visibility: 10 mile(s):0
Sky conditions: clear
Temperature: 46 F (8 C)
Dew Point: 46 F (8 C)
Relative Humidity: 100%
Pressure (altimeter): 30.26 in. Hg (1024 hPa)
ob: KBOW 170635Z AUTO 00000KT 10SM CLR 08/08 A3026 RMK AO2
cycle: 6

Station Type Date Time Source
KBOW TAF UTC NOAA

Error!


Example: see airport list